Time;durP1;ratioP1;P1;durP2;ratioP2;P2;SDS_P1;SDS_P2;PMS_P1;PMS_P2;Temp;Humidity;BMP_temperature;BMP_pressure;BME280_temperature;BME280_humidity;BME280_pressure;Samples;Min_cycle;Max_cycle;Signal;HPM_P1;HPM_P2
2023/10/02 00:01:06;;;;;;;;;;;;;;;;;;5091990;28;19912;-76
2023/10/02 00:03:33;;;;;;;;;;;;;;;;;;5080729;28;19950;-76
2023/10/02 00:05:59;;;;;;;;;;;;;;;;;;5084311;28;20007;-77
2023/10/02 00:08:41;;;;;;;;;;;;;;;;;;5085428;28;20413;-78
2023/10/02 00:11:07;;;;;;;;;;;;;;;;;;5082355;28;19908;-78
2023/10/02 00:13:33;;;;;;;;;;;;;;;;;;5081309;28;19950;-77
2023/10/02 00:15:59;;;;;;;;;;;;;;;;;;5082835;28;19912;-77
2023/10/02 00:18:27;;;;;;;;;;;;;;;;;;5084810;28;19923;-76
2023/10/02 00:21:17;;;;;;;;;;;;;;;;;;5085869;28;19908;-76
2023/10/02 00:23:59;;;;;;;;;;;;;;;;;;5091496;28;19916;-76
2023/10/02 00:26:27;;;;;;;;;;;;;;;;;;5079950;28;19908;-76
2023/10/02 00:28:53;;;;;;;;;;;;;;;;;;5083487;28;20029;-76
2023/10/02 00:31:32;;;;;;;;;;;;;;;;;;5080058;28;19916;-75
2023/10/02 00:33:59;;;;;;;;;;;;;;;;;;5082332;28;19963;-78
2023/10/02 00:36:25;;;;;;;;;;;;;;;;;;5084048;28;19924;-78
2023/10/02 00:38:51;;;;;;;;;;;;;;;;;;5083277;28;19939;-78
2023/10/02 00:41:17;;;;;;;;;;;;;;;;;;5080940;28;19995;-78
2023/10/02 00:43:45;;;;;;;;;;;;;;;;;;5083882;28;19909;-77
2023/10/02 00:46:23;;;;;;;;;;;;;;;;;;5084842;28;19915;-77
2023/10/02 00:48:54;;;;;;;;;;;;;;;;;;5089495;22;19925;-75
2023/10/02 00:51:21;;;;;;;;;;;;;;;;;;5060490;28;19916;-74
2023/10/02 00:53:50;;;;;;;;;;;;;;;;;;5069406;28;19996;-74
2023/10/02 00:56:28;;;;;;;;;;;;;;;;;;5046350;28;19924;-70
2023/10/02 00:59:00;;;;;;;;;;;;;;;;;;5071914;28;19920;-76
2023/10/02 01:01:26;;;;;;;;;;;;;;;;;;5071859;28;20050;-74
2023/10/02 01:04:08;;;;;;;;;;;;;;;;;;5071660;28;20526;-74
2023/10/02 01:06:54;;;;;;;;;;;;;;;;;;5072098;28;19943;-75
2023/10/02 01:09:22;;;;;;;;;;;;;;;;;;5054199;28;19920;-75
2023/10/02 01:11:51;;;;;;;;;;;;;;;;;;5071749;28;20061;-74
2023/10/02 01:14:40;;;;;;;;;;;;;;;;;;5071954;28;19952;-73
2023/10/02 01:17:03;;;;;;;;;;;;;;;;;;5071514;28;19920;-73
2023/10/02 01:19:52;;;;;;;;;;;;;;;;;;5053858;28;19908;-73
2023/10/02 01:22:26;;;;;;;;;;;;;;;;;;5064219;28;19908;-72
2023/10/02 01:25:06;;;;;;;;;;;;;;;;;;5071844;28;19908;-73
2023/10/02 01:27:40;;;;;;;;;;;;;;;;;;5076109;28;19908;-73
2023/10/02 01:30:15;;;;;;;;;;;;;;;;;;5075922;28;19920;-73
2023/10/02 01:32:42;;;;;;;;;;;;;;;;;;5076033;28;19954;-72
2023/10/02 01:35:08;;;;;;;;;;;;;;;;;;5073315;28;19916;-73
2023/10/02 01:37:33;;;;;;;;;;;;;;;;;;5053685;28;20268;-73
2023/10/02 01:40:28;;;;;;;;;;;;;;;;;;5071582;28;19912;-72
2023/10/02 01:42:45;;;;;;;;;;;;;;;;;;5071292;28;19974;-73
2023/10/02 01:45:11;;;;;;;;;;;;;;;;;;5053321;28;20403;-74
2023/10/02 01:47:41;;;;;;;;;;;;;;;;;;5055546;28;19920;-74
2023/10/02 01:50:09;;;;;;;;;;;;;;;;;;5075938;28;20268;-75
2023/10/02 01:52:35;;;;;;;;;;;;;;;;;;5075828;28;19908;-74
2023/10/02 01:55:02;;;;;;;;;;;;;;;;;;5075250;28;20490;-74
2023/10/02 01:57:29;;;;;;;;;;;;;;;;;;5075367;28;19909;-73
2023/10/02 02:00:13;;;;;;;;;;;;;;;;;;5075845;28;20287;-73
2023/10/02 02:02:41;;;;;;;;;;;;;;;;;;5057852;28;19912;-74
2023/10/02 02:05:13;;;;;;;;;;;;;;;;;;5075481;28;19954;-72
2023/10/02 02:07:39;;;;;;;;;;;;;;;;;;5075373;28;19913;-72
2023/10/02 02:10:06;;;;;;;;;;;;;;;;;;5075136;28;19908;-72
2023/10/02 02:12:44;;;;;;;;;;;;;;;;;;5090640;28;19908;-72
2023/10/02 02:15:11;;;;;;;;;;;;;;;;;;5082541;28;19944;-72
2023/10/02 02:17:37;;;;;;;;;;;;;;;;;;5075417;28;19982;-73
2023/10/02 02:20:43;;;;;;;;;;;;;;;;;;5075330;28;20303;-75
2023/10/02 02:23:07;;;;;;;;;;;;;;;;;;5075072;28;19916;-75
2023/10/02 02:25:33;;;;;;;;;;;;;;;;;;5075258;28;19909;-72
2023/10/02 02:28:01;;;;;;;;;;;;;;;;;;5056826;28;19909;-74
2023/10/02 02:30:28;;;;;;;;;;;;;;;;;;5074861;28;19912;-73
2023/10/02 02:32:54;;;;;;;;;;;;;;;;;;5074748;28;19915;-72
2023/10/02 02:35:21;;;;;;;;;;;;;;;;;;5056553;28;19920;-73
2023/10/02 02:37:49;;;;;;;;;;;;;;;;;;5074659;28;20579;-73
2023/10/02 02:40:30;;;;;;;;;;;;;;;;;;5074593;28;20314;-73
2023/10/02 02:42:56;;;;;;;;;;;;;;;;;;5074247;28;19994;-73
2023/10/02 02:45:28;;;;;;;;;;;;;;;;;;5074487;28;19969;-73
2023/10/02 02:47:54;;;;;;;;;;;;;;;;;;5074478;28;19927;-74
2023/10/02 02:50:28;;;;;;;;;;;;;;;;;;5074579;28;19966;-74
2023/10/02 02:53:16;;;;;;;;;;;;;;;;;;5074617;28;19916;-74
2023/10/02 02:55:39;;;;;;;;;;;;;;;;;;5074219;28;19916;-74
2023/10/02 02:58:07;;;;;;;;;;;;;;;;;;5073764;28;20572;-74
2023/10/02 03:00:35;;;;;;;;;;;;;;;;;;5075208;28;19909;-75
2023/10/02 03:03:01;;;;;;;;;;;;;;;;;;5074288;28;19908;-74
2023/10/02 03:05:48;;;;;;;;;;;;;;;;;;5074125;28;20012;-75
2023/10/02 03:08:13;;;;;;;;;;;;;;;;;;5066190;28;19908;-75
2023/10/02 03:10:40;;;;;;;;;;;;;;;;;;5089737;28;19955;-73
2023/10/02 03:13:15;;;;;;;;;;;;;;;;;;5074396;28;20362;-74
2023/10/02 03:15:47;;;;;;;;;;;;;;;;;;5055520;28;19920;-75
2023/10/02 03:23:38;;;;;;;;;;;;;;;;;;5082244;28;19916;-73
2023/10/02 03:26:07;;;;;;;;;;;;;;;;;;5085345;28;19916;-73
2023/10/02 03:28:39;;;;;;;;;;;;;;;;;;5085952;28;19908;-72
2023/10/02 03:31:07;;;;;;;;;;;;;;;;;;5064836;28;20007;-73
2023/10/02 03:33:36;;;;;;;;;;;;;;;;;;5081914;28;19909;-73
2023/10/02 03:36:08;;;;;;;;;;;;;;;;;;5084005;28;19970;-73
2023/10/02 03:41:48;;;;;;;;;;;;;;;;;;5058964;28;19908;-73
2023/10/02 03:44:18;;;;;;;;;;;;;;;;;;5077995;28;20329;-75
2023/10/02 03:46:43;;;;;;;;;;;;;;;;;;5085131;28;19915;-73
2023/10/02 03:49:18;;;;;;;;;;;;;;;;;;5082220;28;19909;-74
2023/10/02 03:51:47;;;;;;;;;;;;;;;;;;5082361;28;19912;-74
2023/10/02 03:54:28;;;;;;;;;;;;;;;;;;5075544;28;19916;-74
2023/10/02 03:56:55;;;;;;;;;;;;;;;;;;5092272;28;19918;-74
2023/10/02 03:59:21;;;;;;;;;;;;;;;;;;5084223;28;20330;-74
2023/10/02 04:01:50;;;;;;;;;;;;;;;;;;5088672;28;19931;-74
2023/10/02 04:04:19;;;;;;;;;;;;;;;;;;5104160;28;19915;-74
2023/10/02 04:06:45;;;;;;;;;;;;;;;;;;5100409;28;19912;-74
2023/10/02 04:11:50;;;;;;;;;;;;;;;;;;5090816;28;19909;-74
2023/10/02 04:14:38;;;;;;;;;;;;;;;;;;5084929;28;19939;-74
2023/10/02 04:17:20;;;;;;;;;;;;;;;;;;5063561;28;19951;-74
2023/10/02 04:22:36;;;;;;;;;;;;;;;;;;5084928;28;19912;-76
2023/10/02 04:25:24;;;;;;;;;;;;;;;;;;5082021;28;19908;-74
2023/10/02 04:30:25;;;;;;;;;;;;;;;;;;5084636;28;20113;-73
2023/10/02 04:32:59;;;;;;;;;;;;;;;;;;5073937;28;20350;-74
2023/10/02 04:35:44;;;;;;;;;;;;;;;;;;5063148;28;19927;-73
2023/10/02 04:43:48;;;;;;;;;;;;;;;;;;5076054;28;19904;-74
2023/10/02 04:46:14;;;;;;;;;;;;;;;;;;5070569;28;19914;-74
2023/10/02 04:48:42;;;;;;;;;;;;;;;;;;5062267;28;20398;-74
2023/10/02 04:51:08;;;;;;;;;;;;;;;;;;5062870;28;19916;-74
2023/10/02 04:53:36;;;;;;;;;;;;;;;;;;5080862;28;20326;-73
2023/10/02 04:58:51;;;;;;;;;;;;;;;;;;5084079;28;19912;-73
2023/10/02 05:01:31;;;;;;;;;;;;;;;;;;5080942;28;20352;-74
2023/10/02 05:04:04;;;;;;;;;;;;;;;;;;5082409;28;19940;-73
2023/10/02 05:09:38;;;;;;;;;;;;;;;;;;5015433;28;19913;-74
2023/10/02 05:12:04;;;;;;;;;;;;;;;;;;5073204;28;20409;-75
2023/10/02 05:14:33;;;;;;;;;;;;;;;;;;5078761;28;19908;-75
2023/10/02 05:17:17;;;;;;;;;;;;;;;;;;5136978;22;19959;-76
2023/10/02 05:19:56;;;;;;;;;;;;;;;;;;5070540;28;19990;-72
2023/10/02 05:22:24;;;;;;;;;;;;;;;;;;5071082;28;20323;-74
2023/10/02 05:24:50;;;;;;;;;;;;;;;;;;5071949;28;19912;-74
2023/10/02 05:27:41;;;;;;;;;;;;;;;;;;5102627;22;20019;-74
2023/10/02 05:30:14;;;;;;;;;;;;;;;;;;5071918;28;19909;-74
2023/10/02 05:32:39;;;;;;;;;;;;;;;;;;5063315;28;19915;-76
2023/10/02 05:35:20;;;;;;;;;;;;;;;;;;5050355;28;20538;-77
2023/10/02 05:37:51;;;;;;;;;;;;;;;;;;5059764;28;19920;-73
2023/10/02 05:42:53;;;;;;;;;;;;;;;;;;5058316;28;20504;-73
2023/10/02 05:45:20;;;;;;;;;;;;;;;;;;5066564;28;19916;-73
2023/10/02 05:47:48;;;;;;;;;;;;;;;;;;5059904;28;20326;-74
2023/10/02 05:53:25;;;;;;;;;;;;;;;;;;5065379;28;20070;-73
2023/10/02 05:56:25;;;;;;;;;;;;;;;;;;5061031;28;19912;-74
2023/10/02 05:58:49;;;;;;;;;;;;;;;;;;5051373;28;20280;-75
2023/10/02 06:01:26;;;;;;;;;;;;;;;;;;5056349;28;19908;-74
2023/10/02 06:03:58;;;;;;;;;;;;;;;;;;5064682;28;19982;-74
2023/10/02 06:06:26;;;;;;;;;;;;;;;;;;5063573;28;19908;-75
2023/10/02 06:08:58;;;;;;;;;;;;;;;;;;5062691;28;19915;-73
2023/10/02 06:11:29;;;;;;;;;;;;;;;;;;5073108;28;19920;-75
2023/10/02 06:13:55;;;;;;;;;;;;;;;;;;5068635;28;19908;-74
2023/10/02 06:16:24;;;;;;;;;;;;;;;;;;5065969;28;19935;-74
2023/10/02 06:19:02;;;;;;;;;;;;;;;;;;5072871;28;19943;-74
2023/10/02 06:21:28;;;;;;;;;;;;;;;;;;5057039;28;19908;-74
2023/10/02 06:23:56;;;;;;;;;;;;;;;;;;5051003;28;20387;-74
2023/10/02 06:26:25;;;;;;;;;;;;;;;;;;5049888;28;19915;-74
2023/10/02 06:29:13;;;;;;;;;;;;;;;;;;5059273;28;19943;-74
2023/10/02 06:31:41;;;;;;;;;;;;;;;;;;5071245;28;20372;-76
2023/10/02 06:34:08;;;;;;;;;;;;;;;;;;5063451;28;19915;-75
2023/10/02 06:36:45;;;;;;;;;;;;;;;;;;5073048;28;20320;-75
2023/10/02 06:39:11;;;;;;;;;;;;;;;;;;5070322;28;19961;-75
2023/10/02 06:41:39;;;;;;;;;;;;;;;;;;5069336;28;20456;-75
2023/10/02 06:44:14;;;;;;;;;;;;;;;;;;5076104;28;20379;-74
2023/10/02 06:46:52;;;;;;;;;;;;;;;;;;5067120;28;19909;-74
2023/10/02 06:49:18;;;;;;;;;;;;;;;;;;5127525;22;20071;-75
2023/10/02 06:51:49;;;;;;;;;;;;;;;;;;5097763;28;19911;-74
2023/10/02 06:54:15;;;;;;;;;;;;;;;;;;5102127;28;19915;-74
2023/10/02 06:56:42;;;;;;;;;;;;;;;;;;5102205;28;19916;-75
2023/10/02 06:59:09;;;;;;;;;;;;;;;;;;5094589;28;19908;-75
2023/10/02 07:01:35;;;;;;;;;;;;;;;;;;5094168;28;19912;-75
2023/10/02 07:04:09;;;;;;;;;;;;;;;;;;5093932;28;19954;-76
2023/10/02 07:06:38;;;;;;;;;;;;;;;;;;5101348;28;20267;-75
2023/10/02 07:09:10;;;;;;;;;;;;;;;;;;5094899;28;20329;-75
2023/10/02 07:11:36;;;;;;;;;;;;;;;;;;5094096;28;19912;-73
2023/10/02 07:14:04;;;;;;;;;;;;;;;;;;5104337;28;19908;-71
2023/10/02 07:16:29;;;;;;;;;;;;;;;;;;5114476;28;20285;-72
2023/10/02 07:18:58;;;;;;;;;;;;;;;;;;5114597;28;19908;-73
2023/10/02 07:21:25;;;;;;;;;;;;;;;;;;5114333;28;19911;-72
2023/10/02 07:23:51;;;;;;;;;;;;;;;;;;5113717;28;19912;-72
2023/10/02 07:26:19;;;;;;;;;;;;;;;;;;5113175;28;19915;-72
2023/10/02 07:28:51;;;;;;;;;;;;;;;;;;5113253;28;19998;-72
2023/10/02 07:31:17;;;;;;;;;;;;;;;;;;5114395;28;20376;-72
2023/10/02 07:33:44;;;;;;;;;;;;;;;;;;5114103;28;19988;-72
2023/10/02 07:36:14;;;;;;;;;;;;;;;;;;5114173;28;19958;-72
2023/10/02 07:38:42;;;;;;;;;;;;;;;;;;5114355;28;20003;-73
2023/10/02 07:41:07;;;;;;;;;;;;;;;;;;5114187;28;20370;-71
2023/10/02 07:43:34;;;;;;;;;;;;;;;;;;5114061;28;20049;-71
2023/10/02 07:46:02;;;;;;;;;;;;;;;;;;5113606;28;20295;-71
2023/10/02 07:48:33;;;;;;;;;;;;;;;;;;5113918;28;19922;-72
2023/10/02 07:50:59;;;;;;;;;;;;;;;;;;5114041;28;19915;-72
2023/10/02 07:53:38;;;;;;;;;;;;;;;;;;5117054;28;19908;-72
2023/10/02 07:56:04;;;;;;;;;;;;;;;;;;5112308;28;19957;-71
2023/10/02 07:58:31;;;;;;;;;;;;;;;;;;5112345;28;19908;-71
2023/10/02 08:01:06;;;;;;;;;;;;;;;;;;5113708;28;19910;-72
2023/10/02 08:03:34;;;;;;;;;;;;;;;;;;5113364;28;19958;-72
2023/10/02 08:06:00;;;;;;;;;;;;;;;;;;5113817;28;19986;-70
2023/10/02 08:08:26;;;;;;;;;;;;;;;;;;5111008;28;19911;-72
2023/10/02 08:10:55;;;;;;;;;;;;;;;;;;5093303;28;19908;-72
2023/10/02 08:13:32;;;;;;;;;;;;;;;;;;5093421;28;19915;-72
2023/10/02 08:15:58;;;;;;;;;;;;;;;;;;5092942;28;19919;-71
2023/10/02 08:18:24;;;;;;;;;;;;;;;;;;5093070;28;19915;-72
2023/10/02 08:20:51;;;;;;;;;;;;;;;;;;5091637;28;19959;-71
2023/10/02 08:23:23;;;;;;;;;;;;;;;;;;5092832;28;19909;-72
2023/10/02 08:26:00;;;;;;;;;;;;;;;;;;5092957;28;20213;-72
2023/10/02 08:28:26;;;;;;;;;;;;;;;;;;5092836;28;20006;-72
2023/10/02 08:30:59;;;;;;;;;;;;;;;;;;5091492;28;19961;-72
2023/10/02 08:33:25;;;;;;;;;;;;;;;;;;5092624;28;19908;-72
2023/10/02 08:35:51;;;;;;;;;;;;;;;;;;5092924;28;19931;-72
2023/10/02 08:38:24;;;;;;;;;;;;;;;;;;5092812;28;20524;-71
2023/10/02 08:40:59;;;;;;;;;;;;;;;;;;5092641;28;19908;-73
2023/10/02 08:43:25;;;;;;;;;;;;;;;;;;5092456;28;19913;-71
2023/10/02 08:45:51;;;;;;;;;;;;;;;;;;5091339;28;20475;-72
2023/10/02 08:48:20;;;;;;;;;;;;;;;;;;5092039;28;20424;-71
2023/10/02 08:50:49;;;;;;;;;;;;;;;;;;5092455;28;19915;-72
2023/10/02 08:53:22;;;;;;;;;;;;;;;;;;5092387;28;19908;-71
2023/10/02 08:58:17;;;;;;;;;;;;;;;;;;5092437;28;19915;-71
2023/10/02 09:00:43;;;;;;;;;;;;;;;;;;5092165;28;19916;-71
2023/10/02 09:03:14;;;;;;;;;;;;;;;;;;5091032;28;19908;-71
2023/10/02 09:05:40;;;;;;;;;;;;;;;;;;5090801;28;19908;-71
2023/10/02 09:08:07;;;;;;;;;;;;;;;;;;5092128;28;19908;-71
2023/10/02 09:10:41;;;;;;;;;;;;;;;;;;5092240;28;20379;-72
2023/10/02 09:13:07;;;;;;;;;;;;;;;;;;5092079;28;19908;-71
2023/10/02 09:15:35;;;;;;;;;;;;;;;;;;5091891;28;19912;-71
2023/10/02 09:18:19;;;;;;;;;;;;;;;;;;5092049;28;19914;-71
2023/10/02 09:20:49;;;;;;;;;;;;;;;;;;5092235;28;20275;-73
2023/10/02 09:23:18;;;;;;;;;;;;;;;;;;5092133;28;19908;-72
2023/10/02 09:25:45;;;;;;;;;;;;;;;;;;5091818;28;19934;-71
2023/10/02 09:28:13;;;;;;;;;;;;;;;;;;5090465;28;20003;-71
2023/10/02 09:30:41;;;;;;;;;;;;;;;;;;5091897;28;19909;-71
2023/10/02 09:33:11;;;;;;;;;;;;;;;;;;5091929;28;20037;-73
2023/10/02 09:35:44;;;;;;;;;;;;;;;;;;5090319;28;19934;-71
2023/10/02 09:38:13;;;;;;;;;;;;;;;;;;5091708;28;19931;-72
2023/10/02 09:43:41;;;;;;;;;;;;;;;;;;5029013;28;20001;-72
2023/10/02 09:46:15;;;;;;;;;;;;;;;;;;5078671;28;19915;-72
2023/10/02 09:48:57;;;;;;;;;;;;;;;;;;5089679;28;19942;-72
2023/10/02 09:51:25;;;;;;;;;;;;;;;;;;5091037;28;19908;-70
2023/10/02 09:54:04;;;;;;;;;;;;;;;;;;5090590;28;19908;-72
2023/10/02 09:56:30;;;;;;;;;;;;;;;;;;5089409;28;19958;-73
2023/10/02 09:59:12;;;;;;;;;;;;;;;;;;5090750;28;19944;-72
2023/10/02 10:01:38;;;;;;;;;;;;;;;;;;5090968;28;19953;-73
2023/10/02 10:04:31;;;;;;;;;;;;;;;;;;5090931;28;19983;-72
2023/10/02 10:06:58;;;;;;;;;;;;;;;;;;5091129;28;19909;-72
2023/10/02 10:09:25;;;;;;;;;;;;;;;;;;5092473;28;19908;-72
2023/10/02 10:14:36;;;;;;;;;;;;;;;;;;5093811;28;20402;-72
2023/10/02 10:17:03;;;;;;;;;;;;;;;;;;5092690;28;19919;-71
2023/10/02 10:19:33;;;;;;;;;;;;;;;;;;5092974;28;19908;-72
2023/10/02 10:22:04;;;;;;;;;;;;;;;;;;5094250;28;19908;-71
2023/10/02 10:24:30;;;;;;;;;;;;;;;;;;5093717;28;19908;-71
2023/10/02 10:26:56;;;;;;;;;;;;;;;;;;5093965;28;20267;-71
2023/10/02 10:29:22;;;;;;;;;;;;;;;;;;5094295;28;19919;-72
2023/10/02 10:31:55;;;;;;;;;;;;;;;;;;5094424;28;19933;-72
2023/10/02 10:34:22;;;;;;;;;;;;;;;;;;5093832;28;19912;-73
2023/10/02 10:36:48;;;;;;;;;;;;;;;;;;5094333;28;19916;-72
2023/10/02 10:39:30;;;;;;;;;;;;;;;;;;5093988;28;20377;-72
2023/10/02 10:42:00;;;;;;;;;;;;;;;;;;5094489;28;19934;-71
2023/10/02 10:44:25;;;;;;;;;;;;;;;;;;5093883;28;19953;-72
2023/10/02 10:46:51;;;;;;;;;;;;;;;;;;5093541;28;19912;-71
2023/10/02 10:49:23;;;;;;;;;;;;;;;;;;5029752;28;1830599;-71
2023/10/02 10:51:52;;;;;;;;;;;;;;;;;;5095040;28;19951;-71
2023/10/02 10:54:30;;;;;;;;;;;;;;;;;;5094442;28;19958;-71
2023/10/02 10:56:56;;;;;;;;;;;;;;;;;;5094373;28;19975;-72
2023/10/02 10:59:22;;;;;;;;;;;;;;;;;;5094497;28;19908;-74
2023/10/02 11:01:55;;;;;;;;;;;;;;;;;;5094474;28;19908;-71
2023/10/02 11:04:34;;;;;;;;;;;;;;;;;;5094249;28;19943;-71
2023/10/02 11:07:19;;;;;;;;;;;;;;;;;;5094503;28;19908;-71
2023/10/02 11:09:45;;;;;;;;;;;;;;;;;;5094377;28;19916;-72
2023/10/02 11:12:12;;;;;;;;;;;;;;;;;;5094403;28;19912;-71
2023/10/02 11:14:38;;;;;;;;;;;;;;;;;;5094251;28;19908;-72
2023/10/02 11:17:04;;;;;;;;;;;;;;;;;;5087016;28;19912;-71
2023/10/02 11:21:56;;;;;;;;;;;;;;;;;;5071883;28;19997;-70
2023/10/02 11:24:22;;;;;;;;;;;;;;;;;;5072608;28;19966;-69
2023/10/02 11:26:49;;;;;;;;;;;;;;;;;;5073766;28;19912;-72
2023/10/02 11:29:20;;;;;;;;;;;;;;;;;;5073747;28;19916;-71
2023/10/02 11:31:46;;;;;;;;;;;;;;;;;;5073674;28;19909;-72
2023/10/02 11:34:12;;;;;;;;;;;;;;;;;;5073448;28;19919;-71
2023/10/02 11:36:39;;;;;;;;;;;;;;;;;;5073500;28;19946;-71
2023/10/02 11:39:16;;;;;;;;;;;;;;;;;;5073493;28;19954;-70
2023/10/02 11:41:42;;;;;;;;;;;;;;;;;;5073614;28;20386;-70
2023/10/02 11:44:10;;;;;;;;;;;;;;;;;;5073341;28;19908;-71
2023/10/02 11:46:36;;;;;;;;;;;;;;;;;;5073539;28;19915;-71
2023/10/02 11:49:02;;;;;;;;;;;;;;;;;;5073311;28;19917;-71
2023/10/02 11:51:28;;;;;;;;;;;;;;;;;;5073251;28;19915;-71
2023/10/02 11:53:54;;;;;;;;;;;;;;;;;;5073015;28;19916;-71
2023/10/02 11:56:20;;;;;;;;;;;;;;;;;;5083735;28;19919;-71
2023/10/02 11:58:48;;;;;;;;;;;;;;;;;;5091128;28;20380;-71
2023/10/02 12:01:15;;;;;;;;;;;;;;;;;;5109234;28;19935;-72
2023/10/02 12:03:41;;;;;;;;;;;;;;;;;;5085978;28;20280;-72
2023/10/02 12:06:07;;;;;;;;;;;;;;;;;;5071790;28;19912;-71
2023/10/02 12:08:35;;;;;;;;;;;;;;;;;;5073050;28;19931;-72
2023/10/02 12:11:01;;;;;;;;;;;;;;;;;;5072945;28;19908;-72
2023/10/02 12:13:28;;;;;;;;;;;;;;;;;;5090378;28;20048;-72
2023/10/02 12:15:54;;;;;;;;;;;;;;;;;;5111074;28;19989;-73
2023/10/02 12:18:21;;;;;;;;;;;;;;;;;;5093078;28;19912;-72
2023/10/02 12:20:49;;;;;;;;;;;;;;;;;;5093169;28;20420;-72
2023/10/02 12:23:16;;;;;;;;;;;;;;;;;;5108796;28;19915;-74
2023/10/02 12:25:42;;;;;;;;;;;;;;;;;;5093163;28;19935;-72
2023/10/02 12:28:09;;;;;;;;;;;;;;;;;;5093141;28;19931;-72
2023/10/02 12:30:35;;;;;;;;;;;;;;;;;;5074570;28;19955;-74
2023/10/02 12:33:01;;;;;;;;;;;;;;;;;;5072585;28;20438;-72
2023/10/02 12:35:27;;;;;;;;;;;;;;;;;;5072172;28;19920;-72
2023/10/02 12:37:53;;;;;;;;;;;;;;;;;;5072559;28;19916;-72
2023/10/02 12:40:20;;;;;;;;;;;;;;;;;;5072601;28;19908;-72
2023/10/02 12:42:46;;;;;;;;;;;;;;;;;;5073990;28;19908;-72
2023/10/02 12:45:13;;;;;;;;;;;;;;;;;;5070842;28;19916;-72
2023/10/02 12:47:40;;;;;;;;;;;;;;;;;;5094959;22;19928;-72
2023/10/02 12:50:10;;;;;;;;;;;;;;;;;;5070990;28;19921;-70
2023/10/02 12:52:36;;;;;;;;;;;;;;;;;;5072071;28;19915;-71
2023/10/02 12:55:02;;;;;;;;;;;;;;;;;;5071910;28;19987;-71
2023/10/02 12:57:28;;;;;;;;;;;;;;;;;;5071964;28;20000;-71
2023/10/02 12:59:54;;;;;;;;;;;;;;;;;;5087000;28;19915;-71
2023/10/02 13:02:20;;;;;;;;;;;;;;;;;;5072083;28;19909;-72
2023/10/02 13:04:46;;;;;;;;;;;;;;;;;;5071807;28;20221;-71
2023/10/02 13:07:12;;;;;;;;;;;;;;;;;;5072224;28;19916;-71
2023/10/02 13:09:37;;;;;;;;;;;;;;;;;;5059947;28;19908;-69
2023/10/02 13:12:03;;;;;;;;;;;;;;;;;;5071291;28;19935;-67
2023/10/02 13:14:30;;;;;;;;;;;;;;;;;;5071832;28;19915;-70
2023/10/02 13:16:56;;;;;;;;;;;;;;;;;;5070809;28;20497;-70
2023/10/02 13:19:22;;;;;;;;;;;;;;;;;;5072013;28;20003;-71
2023/10/02 13:21:52;;;;;;;;;;;;;;;;;;5072010;28;20013;-70
2023/10/02 13:24:18;;;;;;;;;;;;;;;;;;5071624;28;19908;-71
2023/10/02 13:26:44;;;;;;;;;;;;;;;;;;5071899;28;19915;-69
2023/10/02 13:29:10;;;;;;;;;;;;;;;;;;5072023;28;19908;-71
2023/10/02 13:31:36;;;;;;;;;;;;;;;;;;5069181;28;19917;-70
2023/10/02 13:34:05;;;;;;;;;;;;;;;;;;5051663;28;19909;-70
2023/10/02 13:36:31;;;;;;;;;;;;;;;;;;5051390;28;19921;-70
2023/10/02 13:38:56;;;;;;;;;;;;;;;;;;5051119;28;19913;-69
2023/10/02 13:41:22;;;;;;;;;;;;;;;;;;5070503;28;19916;-70
2023/10/02 13:43:48;;;;;;;;;;;;;;;;;;5067701;28;19923;-70
2023/10/02 13:46:14;;;;;;;;;;;;;;;;;;5070171;28;20035;-70
2023/10/02 13:48:40;;;;;;;;;;;;;;;;;;5071589;28;19920;-69
2023/10/02 13:51:06;;;;;;;;;;;;;;;;;;5070225;28;19917;-70
2023/10/02 13:53:32;;;;;;;;;;;;;;;;;;5071589;28;19909;-70
2023/10/02 13:56:03;;;;;;;;;;;;;;;;;;5071438;28;19912;-70
2023/10/02 13:58:29;;;;;;;;;;;;;;;;;;5071722;28;19920;-70
2023/10/02 14:00:56;;;;;;;;;;;;;;;;;;5071785;28;19995;-70
2023/10/02 14:03:22;;;;;;;;;;;;;;;;;;5071710;28;19909;-70
2023/10/02 14:05:48;;;;;;;;;;;;;;;;;;5071162;28;19928;-70
2023/10/02 14:08:13;;;;;;;;;;;;;;;;;;5071432;28;19908;-70
2023/10/02 14:10:40;;;;;;;;;;;;;;;;;;5071650;28;19915;-70
2023/10/02 14:13:08;;;;;;;;;;;;;;;;;;5071297;28;19908;-69
2023/10/02 14:15:36;;;;;;;;;;;;;;;;;;5053475;28;19955;-71
2023/10/02 14:18:02;;;;;;;;;;;;;;;;;;5070468;28;19908;-69
2023/10/02 14:20:28;;;;;;;;;;;;;;;;;;5050393;28;19932;-68
2023/10/02 14:22:54;;;;;;;;;;;;;;;;;;5052221;28;19908;-70
2023/10/02 14:25:26;;;;;;;;;;;;;;;;;;5051619;28;19908;-70
2023/10/02 14:27:52;;;;;;;;;;;;;;;;;;5051777;28;19952;-70
2023/10/02 14:30:18;;;;;;;;;;;;;;;;;;5051289;28;19916;-70
2023/10/02 14:32:46;;;;;;;;;;;;;;;;;;5058623;28;20424;-70
2023/10/02 14:35:12;;;;;;;;;;;;;;;;;;5070659;28;19908;-70
2023/10/02 14:37:38;;;;;;;;;;;;;;;;;;5071222;28;19916;-70
2023/10/02 14:40:09;;;;;;;;;;;;;;;;;;5071186;28;19931;-70
2023/10/02 14:42:35;;;;;;;;;;;;;;;;;;5071187;28;19970;-70
2023/10/02 14:45:01;;;;;;;;;;;;;;;;;;5070384;28;20414;-69
2023/10/02 14:47:27;;;;;;;;;;;;;;;;;;5050678;28;19917;-70
2023/10/02 14:49:54;;;;;;;;;;;;;;;;;;5049642;28;20403;-70
2023/10/02 14:52:20;;;;;;;;;;;;;;;;;;5050977;28;19916;-70
2023/10/02 14:54:47;;;;;;;;;;;;;;;;;;5051515;28;20000;-70
2023/10/02 14:57:14;;;;;;;;;;;;;;;;;;5054475;28;19959;-70
2023/10/02 14:59:41;;;;;;;;;;;;;;;;;;5054345;28;19909;-71
2023/10/02 15:02:07;;;;;;;;;;;;;;;;;;5054408;28;19952;-70
2023/10/02 15:04:33;;;;;;;;;;;;;;;;;;5054185;28;20249;-70
2023/10/02 15:06:59;;;;;;;;;;;;;;;;;;5054490;28;19909;-69
2023/10/02 15:09:25;;;;;;;;;;;;;;;;;;5052944;28;20364;-69
2023/10/02 15:11:51;;;;;;;;;;;;;;;;;;5053082;28;19912;-69
2023/10/02 15:14:17;;;;;;;;;;;;;;;;;;5053789;28;19920;-71
2023/10/02 15:16:43;;;;;;;;;;;;;;;;;;5053927;28;20407;-70
2023/10/02 15:19:10;;;;;;;;;;;;;;;;;;5058111;28;19912;-71
2023/10/02 15:21:36;;;;;;;;;;;;;;;;;;5072701;28;19919;-70
2023/10/02 15:24:03;;;;;;;;;;;;;;;;;;5073886;28;19916;-71
2023/10/02 15:26:32;;;;;;;;;;;;;;;;;;5074207;28;19915;-70
2023/10/02 15:28:58;;;;;;;;;;;;;;;;;;5074376;28;19999;-70
2023/10/02 15:31:24;;;;;;;;;;;;;;;;;;5073906;28;19952;-70
2023/10/02 15:33:52;;;;;;;;;;;;;;;;;;5072916;28;19999;-70
2023/10/02 15:36:18;;;;;;;;;;;;;;;;;;5074224;28;20356;-70
2023/10/02 15:38:48;;;;;;;;;;;;;;;;;;5073841;28;19987;-70
2023/10/02 15:41:14;;;;;;;;;;;;;;;;;;5073730;28;19916;-70
2023/10/02 15:43:40;;;;;;;;;;;;;;;;;;5073653;28;19909;-71
2023/10/02 15:46:06;;;;;;;;;;;;;;;;;;5073624;28;19913;-71
2023/10/02 15:48:34;;;;;;;;;;;;;;;;;;5073524;28;19940;-70
2023/10/02 15:51:00;;;;;;;;;;;;;;;;;;5071879;28;19950;-69
2023/10/02 15:53:26;;;;;;;;;;;;;;;;;;5072004;28;19912;-69
2023/10/02 15:55:52;;;;;;;;;;;;;;;;;;5073184;28;20042;-70
2023/10/02 15:58:18;;;;;;;;;;;;;;;;;;5073498;28;20292;-71
2023/10/02 16:00:45;;;;;;;;;;;;;;;;;;5073585;28;19908;-70
2023/10/02 16:03:11;;;;;;;;;;;;;;;;;;5073176;28;19909;-70
2023/10/02 16:05:40;;;;;;;;;;;;;;;;;;5072256;28;19913;-70
2023/10/02 16:08:06;;;;;;;;;;;;;;;;;;5073305;28;19908;-71
2023/10/02 16:10:32;;;;;;;;;;;;;;;;;;5071922;28;19919;-70
2023/10/02 16:12:58;;;;;;;;;;;;;;;;;;5073050;28;19908;-70
2023/10/02 16:15:24;;;;;;;;;;;;;;;;;;5073146;28;19939;-70
2023/10/02 16:17:51;;;;;;;;;;;;;;;;;;5073231;28;19913;-70
2023/10/02 16:20:19;;;;;;;;;;;;;;;;;;5074075;28;19912;-70
2023/10/02 16:22:45;;;;;;;;;;;;;;;;;;5073694;28;20295;-72
2023/10/02 16:25:15;;;;;;;;;;;;;;;;;;5075616;28;19916;-71
2023/10/02 16:27:41;;;;;;;;;;;;;;;;;;5074755;28;19915;-70
2023/10/02 16:30:09;;;;;;;;;;;;;;;;;;5071724;28;19909;-71
2023/10/02 16:32:35;;;;;;;;;;;;;;;;;;5073196;28;19986;-70
2023/10/02 16:35:05;;;;;;;;;;;;;;;;;;5072106;28;20248;-70
2023/10/02 16:37:30;;;;;;;;;;;;;;;;;;5072699;28;19908;-69
2023/10/02 16:39:59;;;;;;;;;;;;;;;;;;5072734;28;20053;-70
2023/10/02 16:42:25;;;;;;;;;;;;;;;;;;5072473;28;19914;-70
2023/10/02 16:44:52;;;;;;;;;;;;;;;;;;5072463;28;19940;-71
2023/10/02 16:47:18;;;;;;;;;;;;;;;;;;5072605;28;19951;-71
2023/10/02 16:49:45;;;;;;;;;;;;;;;;;;5072531;28;19964;-70
2023/10/02 16:52:15;;;;;;;;;;;;;;;;;;5073355;28;19909;-71
2023/10/02 16:54:41;;;;;;;;;;;;;;;;;;5072541;28;19909;-70
2023/10/02 16:57:07;;;;;;;;;;;;;;;;;;5072692;28;19919;-70
2023/10/02 16:59:32;;;;;;;;;;;;;;;;;;5073496;28;20430;-71
2023/10/02 17:02:01;;;;;;;;;;;;;;;;;;5054020;28;19963;-70
2023/10/02 17:04:27;;;;;;;;;;;;;;;;;;5052155;28;19920;-71
2023/10/02 17:06:54;;;;;;;;;;;;;;;;;;5052191;28;19909;-70
2023/10/02 17:09:20;;;;;;;;;;;;;;;;;;5051068;28;19916;-70
2023/10/02 17:11:46;;;;;;;;;;;;;;;;;;5052119;28;19913;-70
2023/10/02 17:14:12;;;;;;;;;;;;;;;;;;5052188;28;19909;-70
2023/10/02 17:16:39;;;;;;;;;;;;;;;;;;5051821;28;20388;-71
2023/10/02 17:19:05;;;;;;;;;;;;;;;;;;5051333;28;20046;-71
2023/10/02 17:21:31;;;;;;;;;;;;;;;;;;5051953;28;20351;-71
2023/10/02 17:24:00;;;;;;;;;;;;;;;;;;5051642;28;19944;-75
2023/10/02 17:26:26;;;;;;;;;;;;;;;;;;5052703;28;20004;-73
2023/10/02 17:28:52;;;;;;;;;;;;;;;;;;5051888;28;20368;-72
2023/10/02 17:31:20;;;;;;;;;;;;;;;;;;5054491;28;19919;-72
2023/10/02 17:33:46;;;;;;;;;;;;;;;;;;5071696;28;19961;-74
2023/10/02 17:36:12;;;;;;;;;;;;;;;;;;5071863;28;19919;-73
2023/10/02 17:38:38;;;;;;;;;;;;;;;;;;5071570;28;19916;-73
2023/10/02 17:41:04;;;;;;;;;;;;;;;;;;5071832;28;19904;-74
2023/10/02 17:43:30;;;;;;;;;;;;;;;;;;5062146;28;19913;-73